New Holland, OH (43145)

8:24 AM EDT on March 28, 2015 (GMT -0400)
Slightly NW of WCH | | Change Station
CLOSE
Current Station
Personal Weather Station
Location: WASHINGTON COURT HOUSE, OH
Elevation: 1020 ft
Nearby Weather Stations

Elev 1020 ft 39.57 °N, 83.50 °W | Updated 11 minutes ago

Clear
Clear
19.9 °F
Feels Like 12 °F
N
5.8
Wind Variable Wind from NE

Today
High -- | Low -- °F
--% Chance of Precip.
Yesterday
High -- | Low -- °F
Precip. -- in
7:23 AM 7:52 PM
First Quarter, 62% visible
Pressure 30.21 in
Visibility 10.0 miles
Clouds Clear
Windchill 12 °F
Dew Point 17 °F
Humidity 87%
Rainfall 0.00 in
Snow Depth Not available.
UV 0 out of 12
Pollen 5.10 out of 12
Air Quality Not available.
Flu Activity Not available.
METAR KLCK 281215Z AUTO 35007KT 10SM CLR M07/M13 A3021 RMK AO2 T10751133

More Conditions Fewer Conditions

Pressure 30.21 in
Visibility 10.0 miles
Clouds Clear
Windchill 12 °F
Dew Point 17 °F
Humidity 87%
Rainfall 0.00 in
Snow Depth Not available.
UV 0 out of 12
Pollen 5.10 out of 12
Air Quality Not available.
Flu Activity Not available.
METAR KLCK 281215Z AUTO 35007KT 10SM CLR M07/M13 A3021 RMK AO2 T10751133

More Conditions Fewer Conditions

10-Day Weather Forecast

Almanac

Astronomy

Mar. 28, 2015 Rise Set
Actual Time
Civil Twilight
Nautical Twilight
Astronomical Twilight
Moon
Length of Visible Light
Length of Day
Tomorrow will be .
, % of the Moon is Illuminated

Today's Extremes

State Highs State Lows

Community

WunderPhotos

Upload Photos

1,808,964 photos uploaded!

WunderBlogs® & News

Nearby

Air Quality

  Air Quality AQ Index Pollutant
Not available.

Snow Depth

Station Depth Elevation

Earthquake Activity

City Distance Mag. Time & Date
Minimum magnitude displayed is 2.5.

Coastal Water Temperatures

Place Temperature

Stations

Nearby Weather Stations

Station Location Temp. Windchill Dew Point Humidity Wind Precip. Elev Updated Type